createdAt,value
2022-11-03T00:00:16.215Z,101627.31
2022-11-03T00:02:42.610Z,101620.91
2022-11-03T00:05:08.972Z,101615.72
2022-11-03T00:07:35.311Z,101616.72
2022-11-03T00:10:01.582Z,101612.84
2022-11-03T00:12:27.948Z,101611.97
2022-11-03T00:14:54.359Z,101603.69
2022-11-03T00:17:20.629Z,101611.59
2022-11-03T00:19:46.886Z,101614.44
2022-11-03T00:22:13.200Z,101614.06
2022-11-03T00:24:39.494Z,101620.72
2022-11-03T00:27:05.764Z,101615.50
2022-11-03T00:29:32.022Z,101613.25
2022-11-03T00:31:58.302Z,101611.63
2022-11-03T00:34:24.652Z,101614.28
2022-11-03T00:36:50.952Z,101614.47
2022-11-03T00:39:17.298Z,101621.09
2022-11-03T00:41:43.536Z,101608.72
2022-11-03T00:44:09.871Z,101611.97
2022-11-03T00:46:36.169Z,101609.94
2022-11-03T00:49:02.472Z,101609.47
2022-11-03T00:51:28.795Z,101615.72
2022-11-03T00:53:55.185Z,101614.91
2022-11-03T00:56:21.470Z,101612.00
2022-11-03T00:58:47.938Z,101606.22
2022-11-03T01:01:14.382Z,101608.03
2022-11-03T01:03:40.791Z,101611.19
2022-11-03T01:06:07.115Z,101604.16
2022-11-03T01:08:33.707Z,101608.91
2022-11-03T01:11:00.192Z,101604.59
2022-11-03T01:13:26.684Z,101607.06
2022-11-03T01:15:53.149Z,101598.34
2022-11-03T01:18:19.533Z,101601.88
2022-11-03T01:20:45.958Z,101596.88
2022-11-03T01:23:12.235Z,101595.44
2022-11-03T01:25:38.526Z,101596.50
2022-11-03T01:30:36.082Z,101590.44
2022-11-03T01:33:02.725Z,101575.56
2022-11-03T01:35:29.133Z,101579.72
2022-11-03T01:37:55.568Z,101568.91
2022-11-03T01:40:21.934Z,101576.00
2022-11-03T01:42:48.368Z,101578.50
2022-11-03T01:45:14.671Z,101566.03
2022-11-03T01:47:41.242Z,101568.94
2022-11-03T01:50:07.583Z,101568.53
2022-11-03T01:52:34.101Z,101566.25
2022-11-03T01:55:00.401Z,101565.44
2022-11-03T01:57:26.924Z,101557.56
2022-11-03T01:59:53.248Z,101552.00
2022-11-03T02:02:19.650Z,101554.44
2022-11-03T02:04:45.939Z,101547.84
2022-11-03T02:07:12.431Z,101549.91
2022-11-03T02:09:39.585Z,101539.53
2022-11-03T02:12:06.148Z,101545.75
2022-11-03T02:14:32.497Z,101539.09
2022-11-03T02:16:59.961Z,101540.56
2022-11-03T02:19:26.465Z,101539.31
2022-11-03T02:21:52.758Z,101531.44
2022-11-03T02:24:19.052Z,101537.88
2022-11-03T02:26:45.425Z,101536.06
2022-11-03T02:29:11.892Z,101543.28
2022-11-03T02:31:38.209Z,101545.38
2022-11-03T02:34:04.682Z,101532.28
2022-11-03T02:36:30.963Z,101544.53
2022-11-03T02:38:57.468Z,101548.22
2022-11-03T02:41:23.888Z,101544.53
2022-11-03T02:43:50.514Z,101538.75
2022-11-03T02:46:17.004Z,101552.00
2022-11-03T02:48:43.355Z,101543.56
2022-11-03T02:51:09.724Z,101549.34
2022-11-03T02:53:36.070Z,101547.25
2022-11-03T02:56:02.783Z,101541.44
2022-11-03T02:58:29.105Z,101537.53
2022-11-03T03:00:55.435Z,101545.59
2022-11-03T03:03:21.903Z,101543.97
2022-11-03T03:05:48.359Z,101547.47
2022-11-03T03:08:14.851Z,101553.91
2022-11-03T03:10:41.186Z,101549.94
2022-11-03T03:13:08.415Z,101553.28
2022-11-03T03:15:35.042Z,101544.94
2022-11-03T03:18:01.444Z,101541.69
2022-11-03T03:20:27.718Z,101534.41
2022-11-03T03:22:54.083Z,101535.47
2022-11-03T03:25:20.381Z,101526.97
2022-11-03T03:27:46.806Z,101523.91
2022-11-03T03:30:13.140Z,101520.75
2022-11-03T03:32:39.521Z,101523.44
2022-11-03T03:35:05.822Z,101512.50
2022-11-03T03:37:32.081Z,101509.38
2022-11-03T03:39:58.359Z,101507.75
2022-11-03T03:42:24.658Z,101499.88
2022-11-03T03:44:50.964Z,101495.91
2022-11-03T03:47:17.247Z,101495.91
2022-11-03T03:49:43.588Z,101497.56
2022-11-03T03:52:09.848Z,101488.94
2022-11-03T03:54:36.172Z,101487.47
2022-11-03T03:57:02.398Z,101495.09
2022-11-03T03:59:28.703Z,101485.38
2022-11-03T04:01:55.178Z,101492.59
2022-11-03T04:04:21.824Z,101486.78
2022-11-03T04:06:48.219Z,101485.31
2022-11-03T04:09:14.570Z,101477.28
2022-11-03T04:11:40.912Z,101472.28
2022-11-03T04:14:07.314Z,101468.41
2022-11-03T04:16:33.627Z,101466.31
2022-11-03T04:18:59.949Z,101465.47
2022-11-03T04:21:26.271Z,101458.88
2022-11-03T04:23:52.613Z,101464.69
2022-11-03T04:26:18.961Z,101456.63
2022-11-03T04:28:45.291Z,101453.47
2022-11-03T04:31:11.576Z,101457.44
2022-11-03T04:33:38.138Z,101453.94
2022-11-03T04:36:04.470Z,101440.47
2022-11-03T04:38:30.758Z,101437.31
2022-11-03T04:40:57.233Z,101439.84
2022-11-03T04:43:23.708Z,101437.31
2022-11-03T04:45:49.936Z,101437.31
2022-11-03T04:48:16.236Z,101439.84
2022-11-03T04:50:46.581Z,101437.16
2022-11-03T04:53:13.482Z,101437.38
2022-11-03T04:55:40.146Z,101436.56
2022-11-03T04:58:06.453Z,101436.09
2022-11-03T05:00:32.852Z,101433.41
2022-11-03T05:02:59.405Z,101430.72
2022-11-03T05:05:26.058Z,101431.19
2022-11-03T05:07:52.487Z,101433.25
2022-11-03T05:10:18.896Z,101424.13
2022-11-03T05:12:45.220Z,101429.34
2022-11-03T05:15:11.512Z,101426.06
2022-11-03T05:17:37.748Z,101421.22
2022-11-03T05:20:04.121Z,101415.63
2022-11-03T05:22:30.471Z,101411.13
2022-11-03T05:24:56.727Z,101405.84
2022-11-03T05:27:23.142Z,101405.28
2022-11-03T05:29:49.417Z,101407.59
2022-11-03T05:32:15.731Z,101407.97
2022-11-03T05:34:42.187Z,101407.34
2022-11-03T05:37:08.465Z,101407.38
2022-11-03T05:39:34.723Z,101413.34
2022-11-03T05:42:01.026Z,101406.34
2022-11-03T05:44:27.561Z,101409.66
2022-11-03T05:46:53.864Z,101408.44
2022-11-03T05:49:20.250Z,101412.97
2022-11-03T05:51:46.507Z,101406.13
2022-11-03T05:54:17.006Z,101408.22
2022-11-03T05:56:45.872Z,101407.16
2022-11-03T05:59:12.289Z,101399.47
2022-11-03T06:01:38.912Z,101397.19
2022-11-03T06:04:05.500Z,101398.69
2022-11-03T06:06:32.607Z,101395.97
2022-11-03T06:08:58.981Z,101393.91
2022-11-03T06:11:25.316Z,101399.78
2022-11-03T06:13:51.845Z,101403.88
2022-11-03T06:16:18.178Z,101398.13
2022-11-03T06:18:44.478Z,101391.31
2022-11-03T06:21:10.752Z,101392.75
2022-11-03T06:23:37.069Z,101391.91
2022-11-03T06:26:03.340Z,101384.03
2022-11-03T06:28:29.711Z,101380.94
2022-11-03T06:30:56.044Z,101381.34
2022-11-03T06:33:22.540Z,101380.94
2022-11-03T06:35:48.871Z,101380.56
2022-11-03T06:38:15.282Z,101378.19
2022-11-03T06:40:41.679Z,101369.56
2022-11-03T06:43:08.459Z,101366.00
2022-11-03T06:45:34.953Z,101365.78
2022-11-03T06:48:01.482Z,101366.00
2022-11-03T06:50:27.825Z,101367.09
2022-11-03T06:52:54.263Z,101360.06
2022-11-03T06:55:20.738Z,101370.56
2022-11-03T06:57:47.156Z,101373.69
2022-11-03T07:00:32.856Z,101376.97
2022-11-03T07:02:59.843Z,101384.03
2022-11-03T07:05:26.245Z,101385.56
2022-11-03T07:07:52.833Z,101388.84
2022-11-03T07:10:19.113Z,101388.00
2022-11-03T07:12:45.605Z,101384.03
2022-11-03T07:15:11.860Z,101384.84
2022-11-03T07:17:38.317Z,101386.72
2022-11-03T07:20:04.605Z,101386.28
2022-11-03T07:22:31.176Z,101376.97
2022-11-03T07:24:57.646Z,101387.53
2022-11-03T07:27:23.898Z,101378.03
2022-11-03T07:29:50.192Z,101384.63
2022-11-03T07:32:16.561Z,101378.19
2022-11-03T07:34:42.924Z,101372.22
2022-11-03T07:37:09.244Z,101369.78
2022-11-03T07:39:35.624Z,101372.44
2022-11-03T07:42:02.003Z,101366.88
2022-11-03T07:44:28.319Z,101365.03
2022-11-03T07:46:54.619Z,101362.56
2022-11-03T07:49:20.882Z,101358.59
2022-11-03T07:51:47.203Z,101354.84
2022-11-03T07:54:13.506Z,101348.84
2022-11-03T07:56:39.871Z,101356.75
2022-11-03T07:59:06.242Z,101345.41
2022-11-03T08:01:32.669Z,101336.31
2022-11-03T08:03:59.120Z,101335.44
2022-11-03T08:06:25.425Z,101330.91
2022-11-03T08:08:51.884Z,101329.50
2022-11-03T08:11:18.227Z,101326.81
2022-11-03T08:13:44.522Z,101323.25
2022-11-03T08:16:11.022Z,101318.50
2022-11-03T08:18:37.326Z,101316.59
2022-11-03T08:21:03.695Z,101313.16
2022-11-03T08:23:30.282Z,101322.66
2022-11-03T08:25:56.765Z,101321.59
2022-11-03T08:28:23.080Z,101311.06
2022-11-03T08:30:49.470Z,101311.06
2022-11-03T08:33:15.890Z,101303.88
2022-11-03T08:35:42.277Z,101301.97
2022-11-03T08:38:08.998Z,101299.69
2022-11-03T08:40:35.540Z,101296.38
2022-11-03T08:43:01.867Z,101290.19
2022-11-03T08:45:28.278Z,101290.78
2022-11-03T08:47:54.600Z,101286.47
2022-11-03T08:50:20.917Z,101287.72
2022-11-03T08:52:47.403Z,101289.41
2022-11-03T08:55:13.849Z,101284.81
2022-11-03T08:57:40.286Z,101291.69
2022-11-03T09:00:06.610Z,101282.72
2022-11-03T09:02:32.953Z,101270.97
2022-11-03T09:04:59.329Z,101270.16
2022-11-03T09:10:20.381Z,101263.25
2022-11-03T09:12:49.099Z,101262.09
2022-11-03T09:15:15.359Z,101263.50
2022-11-03T09:17:44.683Z,101257.66
2022-11-03T09:20:11.980Z,101271.13
2022-11-03T09:22:38.338Z,101262.09
2022-11-03T09:25:04.675Z,101251.75
2022-11-03T09:27:31.012Z,101243.41
2022-11-03T09:30:12.393Z,101236.81
2022-11-03T09:32:40.026Z,101236.66
2022-11-03T09:35:06.343Z,101235.13
2022-11-03T09:37:32.622Z,101229.81
2022-11-03T09:39:58.933Z,101228.06
2022-11-03T09:42:25.278Z,101228.13
2022-11-03T09:44:51.684Z,101226.38
2022-11-03T09:47:18.120Z,101213.19
2022-11-03T09:49:44.522Z,101215.09
2022-11-03T09:52:10.834Z,101213.09
2022-11-03T09:54:37.175Z,101211.28
2022-11-03T09:57:03.531Z,101219.84
2022-11-03T09:59:29.892Z,101213.19
2022-11-03T10:01:56.239Z,101203.28
2022-11-03T10:04:22.547Z,101194.81
2022-11-03T10:06:48.817Z,101199.16
2022-11-03T10:09:15.157Z,101195.00
2022-11-03T10:11:41.459Z,101191.72
2022-11-03T10:14:07.760Z,101180.06
2022-11-03T10:16:34.042Z,101179.06
2022-11-03T10:19:00.404Z,101171.63
2022-11-03T10:21:26.747Z,101169.13
2022-11-03T10:23:53.065Z,101157.03
2022-11-03T10:26:19.464Z,101153.34
2022-11-03T10:28:45.777Z,101155.50
2022-11-03T10:31:13.183Z,101146.84
2022-11-03T10:33:39.909Z,101155.44
2022-11-03T10:36:06.239Z,101140.63
2022-11-03T10:38:32.522Z,101139.84
2022-11-03T10:40:58.830Z,101133.75
2022-11-03T10:43:25.224Z,101131.63
2022-11-03T10:45:51.679Z,101127.31
2022-11-03T10:48:17.976Z,101125.84
2022-11-03T10:50:44.308Z,101113.06
2022-11-03T10:53:11.243Z,101117.84
2022-11-03T10:58:05.123Z,101103.03
2022-11-03T11:00:31.523Z,101103.72
2022-11-03T11:02:58.052Z,101098.25
2022-11-03T11:05:24.386Z,101082.44
2022-11-03T11:07:50.794Z,101084.53
2022-11-03T11:10:17.193Z,101074.44
2022-11-03T11:12:44.004Z,101076.06
2022-11-03T11:15:10.299Z,101069.59
2022-11-03T11:17:36.750Z,101059.63
2022-11-03T11:20:03.121Z,101056.78
2022-11-03T11:22:29.358Z,101056.28
2022-11-03T11:24:55.621Z,101052.19
2022-11-03T11:27:21.961Z,101044.75
2022-11-03T11:29:48.267Z,101040.94
2022-11-03T11:32:14.718Z,101031.38
2022-11-03T11:34:41.172Z,101028.97
2022-11-03T11:37:07.566Z,101020.31
2022-11-03T11:39:33.855Z,101011.06
2022-11-03T11:42:00.151Z,101012.13
2022-11-03T11:44:26.620Z,101007.94
2022-11-03T11:46:52.987Z,101009.94
2022-11-03T11:49:19.623Z,100993.66
2022-11-03T11:51:46.123Z,100995.69
2022-11-03T11:54:17.994Z,100983.41
2022-11-03T11:56:44.752Z,100989.81
2022-11-03T11:59:11.054Z,100986.78
2022-11-03T12:01:37.389Z,100979.75
2022-11-03T12:04:03.873Z,100973.97
2022-11-03T12:06:30.335Z,100969.56
2022-11-03T12:08:56.833Z,100968.50
2022-11-03T12:11:23.165Z,100961.06
2022-11-03T12:13:49.599Z,100956.88
2022-11-03T12:16:16.046Z,100957.69
2022-11-03T12:18:47.659Z,100953.94
2022-11-03T12:21:15.644Z,100946.00
2022-11-03T12:23:42.129Z,100943.63
2022-11-03T12:26:08.478Z,100936.53
2022-11-03T12:28:34.805Z,100939.09
2022-11-03T12:33:32.351Z,100920.84
2022-11-03T12:35:58.855Z,100912.75
2022-11-03T12:38:25.232Z,100912.75
2022-11-03T12:40:51.648Z,100914.88
2022-11-03T12:43:17.907Z,100913.81
2022-11-03T12:45:44.169Z,100914.41
2022-11-03T12:48:10.831Z,100910.28
2022-11-03T12:50:37.263Z,100912.97
2022-11-03T12:53:03.571Z,100892.75
2022-11-03T12:55:30.245Z,100897.69
2022-11-03T12:57:56.535Z,100901.41
2022-11-03T13:00:23.590Z,100896.03
2022-11-03T13:02:50.632Z,100888.19
2022-11-03T13:05:17.752Z,100881.53
2022-11-03T13:07:44.064Z,100877.22
2022-11-03T13:10:10.350Z,100869.59
2022-11-03T13:12:36.732Z,100870.41
2022-11-03T13:15:03.014Z,100879.06
2022-11-03T13:17:35.960Z,100872.03
2022-11-03T13:20:12.395Z,100860.44
2022-11-03T13:22:38.898Z,100857.53
2022-11-03T13:25:05.268Z,100853.22
2022-11-03T13:27:31.595Z,100843.72
2022-11-03T13:29:57.893Z,100837.88
2022-11-03T13:32:24.251Z,100836.00
2022-11-03T13:34:50.538Z,100832.25
2022-11-03T13:37:16.780Z,100826.09
2022-11-03T13:39:43.094Z,100826.88
2022-11-03T13:42:09.406Z,100822.34
2022-11-03T13:44:35.776Z,100814.50
2022-11-03T13:47:02.134Z,100815.31
2022-11-03T13:50:07.816Z,100818.81
2022-11-03T13:52:14.747Z,100818.00
2022-11-03T14:00:14.156Z,100787.59
2022-11-03T14:05:26.929Z,100781.97
2022-11-03T14:07:53.389Z,100769.81
2022-11-03T14:10:19.770Z,100764.44
2022-11-03T14:12:46.131Z,100756.34
2022-11-03T14:15:12.462Z,100742.06
2022-11-03T14:17:38.993Z,100737.97
2022-11-03T14:20:05.427Z,100739.38
2022-11-03T14:22:31.871Z,100739.59
2022-11-03T14:24:58.140Z,100732.59
2022-11-03T14:27:24.561Z,100728.28
2022-11-03T14:29:50.926Z,100727.22
2022-11-03T14:32:17.269Z,100721.84
2022-11-03T14:34:43.655Z,100715.88
2022-11-03T14:37:10.151Z,100711.91
2022-11-03T14:39:36.488Z,100694.94
2022-11-03T14:42:02.766Z,100697.63
2022-11-03T14:44:29.144Z,100686.28
2022-11-03T14:46:55.474Z,100689.78
2022-11-03T14:49:21.718Z,100685.47
2022-11-03T14:51:48.102Z,100687.56
2022-11-03T14:54:14.360Z,100673.06
2022-11-03T14:56:40.693Z,100673.28
2022-11-03T14:59:06.960Z,100680.31
2022-11-03T15:01:33.422Z,100679.97
2022-11-03T15:03:59.893Z,100675.41
2022-11-03T15:06:26.291Z,100671.88
2022-11-03T15:08:56.439Z,100668.47
2022-11-03T15:11:23.126Z,100666.28
2022-11-03T15:13:51.462Z,100652.00
2022-11-03T15:16:19.072Z,100656.47
2022-11-03T15:18:45.480Z,100657.84
2022-11-03T15:21:12.119Z,100648.72
2022-11-03T15:26:24.954Z,100638.06
2022-11-03T15:28:51.327Z,100634.09
2022-11-03T15:31:17.606Z,100634.09
2022-11-03T15:33:43.900Z,100629.53
2022-11-03T15:36:10.238Z,100623.69
2022-11-03T15:38:36.670Z,100625.41
2022-11-03T15:41:03.041Z,100613.59
2022-11-03T15:43:29.435Z,100622.25
2022-11-03T15:45:55.784Z,100618.28
2022-11-03T15:48:22.063Z,100615.13
2022-11-03T15:50:48.371Z,100615.22
2022-11-03T15:53:14.661Z,100612.41
2022-11-03T15:55:40.976Z,100611.91
2022-11-03T15:58:07.663Z,100608.16
2022-11-03T16:00:34.134Z,100604.75
2022-11-03T16:03:00.651Z,100604.03
2022-11-03T16:05:27.074Z,100594.44
2022-11-03T16:07:53.703Z,100585.38
2022-11-03T16:10:19.998Z,100565.00
2022-11-03T16:12:46.505Z,100561.09
2022-11-03T16:15:12.827Z,100556.06
2022-11-03T16:17:45.242Z,100552.41
2022-11-03T16:20:11.902Z,100545.47
2022-11-03T16:22:38.373Z,100540.75
2022-11-03T16:25:07.416Z,100537.81
2022-11-03T16:27:36.808Z,100535.44
2022-11-03T16:30:03.130Z,100532.25
2022-11-03T16:32:29.419Z,100532.34
2022-11-03T16:34:55.800Z,100528.34
2022-11-03T16:37:22.128Z,100521.63
2022-11-03T16:39:48.394Z,100514.69
2022-11-03T16:42:14.663Z,100520.41
2022-11-03T16:44:40.972Z,100524.22
2022-11-03T16:47:07.257Z,100516.97
2022-11-03T16:49:33.579Z,100506.50
2022-11-03T16:51:59.930Z,100510.59
2022-11-03T16:54:26.190Z,100515.50
2022-11-03T16:56:54.864Z,100506.34
2022-11-03T16:59:21.542Z,100505.03
2022-11-03T17:01:47.977Z,100503.16
2022-11-03T17:04:14.371Z,100500.22
2022-11-03T17:06:40.644Z,100497.75
2022-11-03T17:09:07.041Z,100494.00
2022-11-03T17:11:33.332Z,100491.28
2022-11-03T17:16:27.560Z,100476.25
2022-11-03T17:18:54.095Z,100479.00
2022-11-03T17:21:20.456Z,100467.50
2022-11-03T17:23:47.020Z,100454.09
2022-11-03T17:26:13.353Z,100455.22
2022-11-03T17:28:39.584Z,100459.88
2022-11-03T17:31:05.990Z,100458.03
2022-11-03T17:33:32.376Z,100447.06
2022-11-03T17:35:58.670Z,100440.09
2022-11-03T17:38:25.517Z,100425.63
2022-11-03T17:40:51.803Z,100428.66
2022-11-03T17:43:18.109Z,100423.66
2022-11-03T17:45:44.667Z,100414.28
2022-11-03T17:48:10.970Z,100409.75
2022-11-03T17:50:37.289Z,100409.78
2022-11-03T17:55:32.918Z,100395.31
2022-11-03T17:57:59.503Z,100392.69
2022-11-03T18:00:25.774Z,100391.41
2022-11-03T18:02:52.042Z,100387.38
2022-11-03T18:05:21.313Z,100390.09
2022-11-03T18:12:57.325Z,100391.06
2022-11-03T18:15:23.676Z,100377.59
2022-11-03T18:17:50.425Z,100374.09
2022-11-03T18:20:16.822Z,100355.72
2022-11-03T18:22:43.178Z,100350.34
2022-11-03T18:25:09.512Z,100338.22
2022-11-03T18:27:35.820Z,100344.72
2022-11-03T18:30:02.286Z,100339.34
2022-11-03T18:32:31.818Z,100331.50
2022-11-03T18:35:02.136Z,100324.78
2022-11-03T18:37:28.466Z,100316.38
2022-11-03T18:39:54.754Z,100308.59
2022-11-03T18:45:03.094Z,100308.88
2022-11-03T18:47:29.662Z,100291.56
2022-11-03T18:49:55.996Z,100274.28
2022-11-03T18:52:22.355Z,100280.50
2022-11-03T18:54:48.765Z,100277.28
2022-11-03T19:02:30.497Z,100253.50
2022-11-03T19:04:56.832Z,100248.38
2022-11-03T19:07:23.131Z,100240.25
2022-11-03T19:09:49.440Z,100233.75
2022-11-03T19:12:15.695Z,100231.31
2022-11-03T19:14:42.057Z,100221.31
2022-11-03T19:17:22.355Z,100205.09
2022-11-03T19:19:51.091Z,100203.44
2022-11-03T19:22:17.574Z,100200.75
2022-11-03T19:24:44.059Z,100198.03
2022-11-03T19:27:10.434Z,100189.66
2022-11-03T19:29:36.779Z,100178.84
2022-11-03T19:32:03.051Z,100172.09
2022-11-03T19:34:29.462Z,100170.19
2022-11-03T19:36:55.895Z,100169.94
2022-11-03T19:39:22.203Z,100170.72
2022-11-03T19:41:48.522Z,100166.72
2022-11-03T19:44:15.089Z,100160.47
2022-11-03T19:46:41.594Z,100157.75
2022-11-03T19:49:07.894Z,100158.28
2022-11-03T19:51:34.305Z,100159.66
2022-11-03T19:54:00.726Z,100148.81
2022-11-03T19:56:27.101Z,100146.94
2022-11-03T19:58:53.428Z,100136.13
2022-11-03T20:01:19.750Z,100138.00
2022-11-03T20:03:46.354Z,100139.91
2022-11-03T20:06:16.765Z,100141.81
2022-11-03T20:08:45.815Z,100137.22
2022-11-03T20:11:12.192Z,100142.63
2022-11-03T20:13:38.443Z,100143.72
2022-11-03T20:16:04.935Z,100136.38
2022-11-03T20:18:31.234Z,100133.69
2022-11-03T20:20:57.604Z,100127.75
2022-11-03T20:23:24.014Z,100121.78
2022-11-03T20:25:50.254Z,100110.69
2022-11-03T20:28:16.474Z,100119.06
2022-11-03T20:30:42.971Z,100108.25
2022-11-03T20:33:09.609Z,100107.47
2022-11-03T20:35:36.213Z,100101.22
2022-11-03T20:38:02.617Z,100099.34
2022-11-03T20:40:29.101Z,100085.00
2022-11-03T20:42:55.771Z,100079.06
2022-11-03T20:45:22.450Z,100078.78
2022-11-03T20:47:48.775Z,100076.34
2022-11-03T20:50:15.622Z,100074.72
2022-11-03T20:52:42.011Z,100080.13
2022-11-03T20:55:08.227Z,100079.59
2022-11-03T20:57:34.473Z,100070.66
2022-11-03T21:00:00.776Z,100063.63
2022-11-03T21:02:27.258Z,100060.09
2022-11-03T21:04:53.655Z,100062.00
2022-11-03T21:07:19.932Z,100059.53
2022-11-03T21:09:46.172Z,100054.94
2022-11-03T21:12:12.467Z,100067.41
2022-11-03T21:14:39.289Z,100058.47
2022-11-03T21:17:05.607Z,100059.81
2022-11-03T21:19:31.963Z,100043.59
2022-11-03T21:21:58.291Z,100042.78
2022-11-03T21:26:56.196Z,100036.84
2022-11-03T21:29:33.122Z,100031.69
2022-11-03T21:32:09.016Z,100036.28
2022-11-03T21:34:35.408Z,100039.53
2022-11-03T21:37:01.738Z,100043.88
2022-11-03T21:39:27.984Z,100035.19
2022-11-03T21:41:54.295Z,100033.56
2022-11-03T21:44:20.618Z,100041.94
2022-11-03T21:46:47.244Z,100036.00
2022-11-03T21:49:13.676Z,100035.19
2022-11-03T21:51:40.037Z,100028.16
2022-11-03T21:54:06.656Z,100028.69
2022-11-03T21:56:32.961Z,100028.97
2022-11-03T21:58:59.852Z,100025.75
2022-11-03T22:01:26.293Z,100025.19
2022-11-03T22:03:52.662Z,100028.19
2022-11-03T22:06:18.994Z,100035.47
2022-11-03T22:08:45.382Z,100027.88
2022-11-03T22:11:11.668Z,100024.38
2022-11-03T22:13:37.896Z,100026.53
2022-11-03T22:16:04.166Z,100022.47
2022-11-03T22:18:30.455Z,100032.50
2022-11-03T22:20:56.751Z,100015.72
2022-11-03T22:23:23.067Z,100018.41
2022-11-03T22:25:49.452Z,100018.94
2022-11-03T22:28:16.123Z,100017.59
2022-11-03T22:30:42.722Z,100014.38
2022-11-03T22:33:09.134Z,100014.63
2022-11-03T22:35:35.506Z,100009.22
2022-11-03T22:38:02.064Z,100008.66
2022-11-03T22:40:28.396Z,100008.13
2022-11-03T22:42:54.859Z,100012.72
2022-11-03T22:45:21.135Z,100005.16
2022-11-03T22:47:47.752Z,100007.31
2022-11-03T22:50:14.086Z,100003.53
2022-11-03T22:52:40.514Z,99991.34
2022-11-03T22:55:06.762Z,99989.75
2022-11-03T22:57:33.111Z,99988.91
2022-11-03T22:59:59.367Z,99989.47
2022-11-03T23:02:26.145Z,99991.91
2022-11-03T23:04:52.529Z,99974.34
2022-11-03T23:07:18.942Z,99973.53
2022-11-03T23:09:46.535Z,99971.34
2022-11-03T23:12:12.839Z,99974.06
2022-11-03T23:14:39.209Z,99981.38
2022-11-03T23:17:05.552Z,99980.00
2022-11-03T23:19:31.824Z,99965.44
2022-11-03T23:21:58.124Z,99965.13
2022-11-03T23:24:24.414Z,99957.31
2022-11-03T23:26:50.928Z,99954.06
2022-11-03T23:29:17.258Z,99941.66
2022-11-03T23:31:43.621Z,99936.47
2022-11-03T23:34:09.965Z,99935.66
2022-11-03T23:36:36.197Z,99934.84
2022-11-03T23:39:02.834Z,99934.28
2022-11-03T23:41:29.177Z,99933.50
2022-11-03T23:43:55.826Z,99939.44
2022-11-03T23:46:22.113Z,99931.59
2022-11-03T23:48:48.346Z,99934.56
2022-11-03T23:51:14.603Z,99919.44
2022-11-03T23:53:40.957Z,99923.22
2022-11-03T23:56:07.255Z,99929.41
2022-11-03T23:58:33.607Z,99921.88
